METAR = EDDE 130950Z 23012KT 9999 FEW030 05/00 Q1002 NOSIG

TAF = TAF TAF EDDE 130500Z 1306/1406 21008KT 9999 SCT020

METAR EDDE Decoded:

STATION........ EDDE
OBSERVED....... Wed Nov 13, 10:50 MET
NOW............ Wed Nov 13, 11:15 MET
AGE............ 25 min ago
WIND........... SW at 22 km/h
VISIBILITY..... 16 miles
CLOUDS......... partly cloudy
TEMP........... 41°F (5°C)
WIND CHILL..... 31°F (-1°C)
DEWPT.......... 32°F (0°C)
HUMIDITY....... 70%
BAROMETER...... 1002 hPa (29.59 in Hg)


ICAO-Code: